首页
METAR-TAF:

METAR-TAF

机场 :

達拉曼, 土耳其

纬度: 36-42N, 经度: 028-47E, 海拔: 7米

当前天气观测

该预报发布于25分钟前的23:50 UTC
风速6节,风向东转东北
温度 8°C
湿度 87%
气压 1013 hPa
能见度10公里或以上
少量云层高于3000英尺
多云层高于10000英尺

METAR: LTBS 092350Z 06006KT 9999 FEW030 BKN100 08/06 Q1013 NOSIG

时间: 03:15 (00:15 UTC)

预报

该预报发布于1小时和35分钟前的22:40 UTC
预报有效从10日的 00点(UTC)到 10日的 24点(UTC)
风速2节,风向多变
能见度10公里或以上
少量云层高于3000英尺
多云层高于12000英尺
成为
从 10日的 07点(UTC)到 10日的 09点(UTC)
风速12节,风向南转南东

TAF: LTBS 092240Z 1000/1024 VRB02KT 9999 FEW030 BKN120 BECMG 1007/1009 15012KT

超过4000个机场的气象观测和天气预报(METAR&TAF报告)。

可查询的气象台以黄色和红色小点在地图上表示。

将鼠标移到小点上方,可查看气象台名称。

然后点击查看天气观测和预报。

如需切换地图:点击带黑十字的绿色按钮放大地图;点击带横线的绿色按钮缩小地图;或者点击绿色箭头查看邻近地区的地图。


METAR-TAF: